sensor_id;sensor_type;location;lat;lon;timestamp;P1;durP1;ratioP1;P2;durP2;ratioP2
29816;SDS011;16805;52.956;5.906;2024-03-02T00:00:21;1.60;;;0.90;;
29816;SDS011;16805;52.956;5.906;2024-03-02T00:02:50;1.25;;;1.02;;
29816;SDS011;16805;52.956;5.906;2024-03-02T00:05:20;2.50;;;1.42;;
29816;SDS011;16805;52.956;5.906;2024-03-02T00:07:53;2.00;;;1.17;;
29816;SDS011;16805;52.956;5.906;2024-03-02T00:10:24;1.85;;;1.13;;
29816;SDS011;16805;52.956;5.906;2024-03-02T00:13:09;4.43;;;1.45;;
29816;SDS011;16805;52.956;5.906;2024-03-02T00:18:13;1.60;;;1.20;;
29816;SDS011;16805;52.956;5.906;2024-03-02T00:20:41;2.17;;;1.70;;
29816;SDS011;16805;52.956;5.906;2024-03-02T00:23:09;3.55;;;1.42;;
29816;SDS011;16805;52.956;5.906;2024-03-02T00:25:41;1.70;;;1.13;;
29816;SDS011;16805;52.956;5.906;2024-03-02T00:28:21;1.75;;;1.00;;
29816;SDS011;16805;52.956;5.906;2024-03-02T00:30:59;2.08;;;1.10;;
29816;SDS011;16805;52.956;5.906;2024-03-02T00:33:39;1.67;;;1.10;;
29816;SDS011;16805;52.956;5.906;2024-03-02T00:36:14;4.63;;;1.15;;
29816;SDS011;16805;52.956;5.906;2024-03-02T00:38:50;2.90;;;1.35;;
29816;SDS011;16805;52.956;5.906;2024-03-02T00:41:22;2.10;;;1.13;;
29816;SDS011;16805;52.956;5.906;2024-03-02T00:46:27;1.85;;;1.00;;
29816;SDS011;16805;52.956;5.906;2024-03-02T00:48:56;1.70;;;1.25;;
29816;SDS011;16805;52.956;5.906;2024-03-02T00:51:24;2.13;;;1.35;;
29816;SDS011;16805;52.956;5.906;2024-03-02T00:53:55;2.55;;;1.20;;
29816;SDS011;16805;52.956;5.906;2024-03-02T00:56:23;1.88;;;1.13;;
29816;SDS011;16805;52.956;5.906;2024-03-02T00:58:52;1.85;;;1.27;;
29816;SDS011;16805;52.956;5.906;2024-03-02T01:01:26;1.70;;;0.82;;
29816;SDS011;16805;52.956;5.906;2024-03-02T01:03:52;3.25;;;1.38;;
29816;SDS011;16805;52.956;5.906;2024-03-02T01:06:18;2.35;;;1.38;;
29816;SDS011;16805;52.956;5.906;2024-03-02T01:08:46;2.75;;;0.85;;
29816;SDS011;16805;52.956;5.906;2024-03-02T01:13:47;2.30;;;2.08;;
29816;SDS011;16805;52.956;5.906;2024-03-02T01:16:16;1.40;;;1.10;;
29816;SDS011;16805;52.956;5.906;2024-03-02T01:18:41;2.92;;;1.25;;
29816;SDS011;16805;52.956;5.906;2024-03-02T01:21:12;2.20;;;1.52;;
29816;SDS011;16805;52.956;5.906;2024-03-02T01:23:40;3.58;;;1.50;;
29816;SDS011;16805;52.956;5.906;2024-03-02T01:26:05;1.58;;;1.10;;
29816;SDS011;16805;52.956;5.906;2024-03-02T01:28:32;1.58;;;0.52;;
29816;SDS011;16805;52.956;5.906;2024-03-02T01:30:58;3.00;;;1.20;;
29816;SDS011;16805;52.956;5.906;2024-03-02T01:33:26;1.10;;;0.95;;
29816;SDS011;16805;52.956;5.906;2024-03-02T01:35:53;1.50;;;1.08;;
29816;SDS011;16805;52.956;5.906;2024-03-02T01:38:20;4.55;;;1.10;;
29816;SDS011;16805;52.956;5.906;2024-03-02T01:40:50;1.02;;;0.70;;
29816;SDS011;16805;52.956;5.906;2024-03-02T01:43:16;2.05;;;0.90;;
29816;SDS011;16805;52.956;5.906;2024-03-02T01:45:47;0.52;;;0.52;;
29816;SDS011;16805;52.956;5.906;2024-03-02T01:48:17;1.30;;;0.90;;
29816;SDS011;16805;52.956;5.906;2024-03-02T01:50:45;1.85;;;0.93;;
29816;SDS011;16805;52.956;5.906;2024-03-02T01:53:24;1.50;;;1.08;;
29816;SDS011;16805;52.956;5.906;2024-03-02T01:55:49;1.42;;;1.10;;
29816;SDS011;16805;52.956;5.906;2024-03-02T01:58:15;3.25;;;1.15;;
29816;SDS011;16805;52.956;5.906;2024-03-02T02:00:42;2.00;;;0.88;;
29816;SDS011;16805;52.956;5.906;2024-03-02T02:03:11;1.75;;;0.93;;
29816;SDS011;16805;52.956;5.906;2024-03-02T02:05:38;1.55;;;0.88;;
29816;SDS011;16805;52.956;5.906;2024-03-02T02:08:10;1.00;;;0.82;;
29816;SDS011;16805;52.956;5.906;2024-03-02T02:10:37;1.05;;;0.80;;
29816;SDS011;16805;52.956;5.906;2024-03-02T02:13:08;0.70;;;0.70;;
29816;SDS011;16805;52.956;5.906;2024-03-02T02:15:33;1.92;;;1.15;;
29816;SDS011;16805;52.956;5.906;2024-03-02T02:18:02;1.52;;;0.82;;
29816;SDS011;16805;52.956;5.906;2024-03-02T02:20:31;4.60;;;0.85;;
29816;SDS011;16805;52.956;5.906;2024-03-02T02:23:02;1.35;;;0.80;;
29816;SDS011;16805;52.956;5.906;2024-03-02T02:25:29;2.97;;;0.88;;
29816;SDS011;16805;52.956;5.906;2024-03-02T02:27:57;1.05;;;0.73;;
29816;SDS011;16805;52.956;5.906;2024-03-02T02:30:29;0.55;;;0.47;;
29816;SDS011;16805;52.956;5.906;2024-03-02T02:32:55;0.52;;;0.50;;
29816;SDS011;16805;52.956;5.906;2024-03-02T02:35:21;0.73;;;0.55;;
29816;SDS011;16805;52.956;5.906;2024-03-02T02:37:49;0.98;;;0.60;;
29816;SDS011;16805;52.956;5.906;2024-03-02T02:40:15;1.48;;;0.68;;
29816;SDS011;16805;52.956;5.906;2024-03-02T02:42:41;1.67;;;0.75;;
29816;SDS011;16805;52.956;5.906;2024-03-02T02:45:07;0.93;;;0.60;;
29816;SDS011;16805;52.956;5.906;2024-03-02T02:47:33;0.68;;;0.65;;
29816;SDS011;16805;52.956;5.906;2024-03-02T02:50:00;1.10;;;0.68;;
29816;SDS011;16805;52.956;5.906;2024-03-02T02:52:34;1.75;;;0.77;;
29816;SDS011;16805;52.956;5.906;2024-03-02T02:55:08;1.05;;;0.70;;
29816;SDS011;16805;52.956;5.906;2024-03-02T02:57:44;2.95;;;0.57;;
29816;SDS011;16805;52.956;5.906;2024-03-02T03:00:18;0.82;;;0.50;;
29816;SDS011;16805;52.956;5.906;2024-03-02T03:02:48;1.05;;;0.70;;
29816;SDS011;16805;52.956;5.906;2024-03-02T03:05:15;0.93;;;0.80;;
29816;SDS011;16805;52.956;5.906;2024-03-02T03:07:44;0.80;;;0.70;;
29816;SDS011;16805;52.956;5.906;2024-03-02T03:10:10;1.00;;;0.80;;
29816;SDS011;16805;52.956;5.906;2024-03-02T03:12:36;1.63;;;0.70;;
29816;SDS011;16805;52.956;5.906;2024-03-02T03:15:02;3.42;;;0.60;;
29816;SDS011;16805;52.956;5.906;2024-03-02T03:17:32;2.10;;;0.98;;
29816;SDS011;16805;52.956;5.906;2024-03-02T03:19:57;0.98;;;0.52;;
29816;SDS011;16805;52.956;5.906;2024-03-02T03:22:25;2.17;;;0.77;;
29816;SDS011;16805;52.956;5.906;2024-03-02T03:24:52;0.40;;;0.40;;
29816;SDS011;16805;52.956;5.906;2024-03-02T03:27:21;0.35;;;0.35;;
29816;SDS011;16805;52.956;5.906;2024-03-02T03:29:47;1.05;;;0.50;;
29816;SDS011;16805;52.956;5.906;2024-03-02T03:32:13;1.50;;;0.77;;
29816;SDS011;16805;52.956;5.906;2024-03-02T03:34:42;3.10;;;0.40;;
29816;SDS011;16805;52.956;5.906;2024-03-02T03:37:13;0.40;;;0.40;;
29816;SDS011;16805;52.956;5.906;2024-03-02T03:39:38;1.00;;;0.35;;
29816;SDS011;16805;52.956;5.906;2024-03-02T03:42:05;0.98;;;0.40;;
29816;SDS011;16805;52.956;5.906;2024-03-02T03:44:32;0.73;;;0.35;;
29816;SDS011;16805;52.956;5.906;2024-03-02T03:46:59;0.98;;;0.40;;
29816;SDS011;16805;52.956;5.906;2024-03-02T03:49:33;1.35;;;0.47;;
29816;SDS011;16805;52.956;5.906;2024-03-02T03:51:59;2.38;;;0.50;;
29816;SDS011;16805;52.956;5.906;2024-03-02T03:54:25;0.35;;;0.30;;
29816;SDS011;16805;52.956;5.906;2024-03-02T03:56:52;0.40;;;0.30;;
29816;SDS011;16805;52.956;5.906;2024-03-02T03:59:17;0.55;;;0.30;;
29816;SDS011;16805;52.956;5.906;2024-03-02T04:01:44;0.30;;;0.30;;
29816;SDS011;16805;52.956;5.906;2024-03-02T04:04:10;0.57;;;0.38;;
29816;SDS011;16805;52.956;5.906;2024-03-02T04:06:39;0.20;;;0.20;;
29816;SDS011;16805;52.956;5.906;2024-03-02T04:09:05;0.20;;;0.20;;
29816;SDS011;16805;52.956;5.906;2024-03-02T04:11:35;0.40;;;0.40;;
29816;SDS011;16805;52.956;5.906;2024-03-02T04:14:04;0.45;;;0.40;;
29816;SDS011;16805;52.956;5.906;2024-03-02T04:16:35;1.55;;;0.28;;
29816;SDS011;16805;52.956;5.906;2024-03-02T04:19:01;0.30;;;0.20;;
29816;SDS011;16805;52.956;5.906;2024-03-02T04:21:30;0.30;;;0.30;;
29816;SDS011;16805;52.956;5.906;2024-03-02T04:23:57;0.10;;;0.10;;
29816;SDS011;16805;52.956;5.906;2024-03-02T04:26:26;0.15;;;0.15;;
29816;SDS011;16805;52.956;5.906;2024-03-02T04:28:55;0.30;;;0.20;;
29816;SDS011;16805;52.956;5.906;2024-03-02T04:31:25;0.55;;;0.35;;
29816;SDS011;16805;52.956;5.906;2024-03-02T04:33:54;0.68;;;0.20;;
29816;SDS011;16805;52.956;5.906;2024-03-02T04:36:20;0.20;;;0.20;;
29816;SDS011;16805;52.956;5.906;2024-03-02T04:38:46;0.20;;;0.20;;
29816;SDS011;16805;52.956;5.906;2024-03-02T04:41:11;0.38;;;0.20;;
29816;SDS011;16805;52.956;5.906;2024-03-02T04:43:38;0.30;;;0.10;;
29816;SDS011;16805;52.956;5.906;2024-03-02T04:46:06;0.47;;;0.15;;
29816;SDS011;16805;52.956;5.906;2024-03-02T04:48:32;0.73;;;0.30;;
29816;SDS011;16805;52.956;5.906;2024-03-02T04:51:04;0.50;;;0.30;;
29816;SDS011;16805;52.956;5.906;2024-03-02T04:53:32;3.92;;;0.40;;
29816;SDS011;16805;52.956;5.906;2024-03-02T04:56:01;0.50;;;0.30;;
29816;SDS011;16805;52.956;5.906;2024-03-02T04:58:46;0.30;;;0.20;;
29816;SDS011;16805;52.956;5.906;2024-03-02T05:01:15;0.65;;;0.22;;
29816;SDS011;16805;52.956;5.906;2024-03-02T05:03:42;0.80;;;0.15;;
29816;SDS011;16805;52.956;5.906;2024-03-02T05:06:11;0.75;;;0.25;;
29816;SDS011;16805;52.956;5.906;2024-03-02T05:08:44;0.65;;;0.20;;
29816;SDS011;16805;52.956;5.906;2024-03-02T05:11:09;0.28;;;0.28;;
29816;SDS011;16805;52.956;5.906;2024-03-02T05:13:54;0.82;;;0.10;;
29816;SDS011;16805;52.956;5.906;2024-03-02T05:16:19;0.20;;;0.20;;
29816;SDS011;16805;52.956;5.906;2024-03-02T05:18:47;0.10;;;0.10;;
29816;SDS011;16805;52.956;5.906;2024-03-02T05:21:13;0.68;;;0.30;;
29816;SDS011;16805;52.956;5.906;2024-03-02T05:23:39;0.22;;;0.22;;
29816;SDS011;16805;52.956;5.906;2024-03-02T05:26:07;0.20;;;0.20;;
29816;SDS011;16805;52.956;5.906;2024-03-02T05:28:36;0.15;;;0.15;;
29816;SDS011;16805;52.956;5.906;2024-03-02T05:31:01;0.50;;;0.20;;
29816;SDS011;16805;52.956;5.906;2024-03-02T05:33:27;0.10;;;0.10;;
29816;SDS011;16805;52.956;5.906;2024-03-02T05:35:58;1.05;;;0.13;;
29816;SDS011;16805;52.956;5.906;2024-03-02T05:38:24;0.17;;;0.17;;
29816;SDS011;16805;52.956;5.906;2024-03-02T05:40:49;0.22;;;0.22;;
29816;SDS011;16805;52.956;5.906;2024-03-02T05:43:15;0.38;;;0.17;;
29816;SDS011;16805;52.956;5.906;2024-03-02T05:45:44;0.52;;;0.20;;
29816;SDS011;16805;52.956;5.906;2024-03-02T05:48:09;0.28;;;0.20;;
29816;SDS011;16805;52.956;5.906;2024-03-02T05:50:35;0.20;;;0.20;;
29816;SDS011;16805;52.956;5.906;2024-03-02T05:53:08;0.20;;;0.20;;
29816;SDS011;16805;52.956;5.906;2024-03-02T05:55:36;0.68;;;0.25;;
29816;SDS011;16805;52.956;5.906;2024-03-02T05:58:05;0.45;;;0.40;;
29816;SDS011;16805;52.956;5.906;2024-03-02T06:00:31;0.65;;;0.30;;
29816;SDS011;16805;52.956;5.906;2024-03-02T06:02:57;0.55;;;0.28;;
29816;SDS011;16805;52.956;5.906;2024-03-02T06:05:26;1.38;;;0.40;;
29816;SDS011;16805;52.956;5.906;2024-03-02T06:07:57;0.65;;;0.20;;
29816;SDS011;16805;52.956;5.906;2024-03-02T06:10:26;0.22;;;0.22;;
29816;SDS011;16805;52.956;5.906;2024-03-02T06:12:55;0.22;;;0.22;;
29816;SDS011;16805;52.956;5.906;2024-03-02T06:15:38;4.65;;;0.30;;
29816;SDS011;16805;52.956;5.906;2024-03-02T06:18:23;0.32;;;0.30;;
29816;SDS011;16805;52.956;5.906;2024-03-02T06:20:56;0.88;;;0.30;;
29816;SDS011;16805;52.956;5.906;2024-03-02T06:23:30;0.20;;;0.20;;
29816;SDS011;16805;52.956;5.906;2024-03-02T06:26:03;0.30;;;0.20;;
29816;SDS011;16805;52.956;5.906;2024-03-02T06:28:34;0.20;;;0.20;;
29816;SDS011;16805;52.956;5.906;2024-03-02T06:31:09;0.85;;;0.40;;
29816;SDS011;16805;52.956;5.906;2024-03-02T06:33:59;1.02;;;0.75;;
29816;SDS011;16805;52.956;5.906;2024-03-02T06:47:03;0.20;;;0.20;;
29816;SDS011;16805;52.956;5.906;2024-03-02T06:53:31;0.47;;;0.30;;
29816;SDS011;16805;52.956;5.906;2024-03-02T06:56:37;0.40;;;0.40;;
29816;SDS011;16805;52.956;5.906;2024-03-02T07:02:18;0.20;;;0.20;;
29816;SDS011;16805;52.956;5.906;2024-03-02T07:05:03;0.25;;;0.20;;
29816;SDS011;16805;52.956;5.906;2024-03-02T07:08:13;0.63;;;0.30;;
29816;SDS011;16805;52.956;5.906;2024-03-02T07:10:52;0.30;;;0.30;;
29816;SDS011;16805;52.956;5.906;2024-03-02T07:14:07;2.15;;;0.30;;
29816;SDS011;16805;52.956;5.906;2024-03-02T07:16:42;0.20;;;0.20;;
29816;SDS011;16805;52.956;5.906;2024-03-02T07:19:27;3.25;;;0.55;;
29816;SDS011;16805;52.956;5.906;2024-03-02T07:21:59;0.40;;;0.25;;
29816;SDS011;16805;52.956;5.906;2024-03-02T07:24:55;1.55;;;0.40;;
29816;SDS011;16805;52.956;5.906;2024-03-02T07:27:31;0.28;;;0.22;;
29816;SDS011;16805;52.956;5.906;2024-03-02T07:30:03;1.63;;;0.28;;
29816;SDS011;16805;52.956;5.906;2024-03-02T07:32:52;0.20;;;0.20;;
29816;SDS011;16805;52.956;5.906;2024-03-02T07:35:46;0.47;;;0.47;;
29816;SDS011;16805;52.956;5.906;2024-03-02T07:38:33;0.20;;;0.20;;
29816;SDS011;16805;52.956;5.906;2024-03-02T07:43:49;0.30;;;0.20;;
29816;SDS011;16805;52.956;5.906;2024-03-02T07:46:15;0.30;;;0.30;;
29816;SDS011;16805;52.956;5.906;2024-03-02T07:48:46;0.10;;;0.10;;
29816;SDS011;16805;52.956;5.906;2024-03-02T07:51:20;0.68;;;0.40;;
29816;SDS011;16805;52.956;5.906;2024-03-02T07:53:57;1.92;;;0.38;;
29816;SDS011;16805;52.956;5.906;2024-03-02T07:56:27;0.73;;;0.30;;
29816;SDS011;16805;52.956;5.906;2024-03-02T07:58:57;1.60;;;0.22;;
29816;SDS011;16805;52.956;5.906;2024-03-02T08:01:29;0.93;;;0.43;;
29816;SDS011;16805;52.956;5.906;2024-03-02T08:10:44;2.30;;;0.60;;
29816;SDS011;16805;52.956;5.906;2024-03-02T08:13:27;1.55;;;0.40;;
29816;SDS011;16805;52.956;5.906;2024-03-02T08:15:55;1.48;;;0.40;;
29816;SDS011;16805;52.956;5.906;2024-03-02T08:18:30;0.38;;;0.30;;
29816;SDS011;16805;52.956;5.906;2024-03-02T08:21:13;1.08;;;0.40;;
29816;SDS011;16805;52.956;5.906;2024-03-02T08:23:45;0.82;;;0.50;;
29816;SDS011;16805;52.956;5.906;2024-03-02T08:26:22;2.78;;;0.70;;
29816;SDS011;16805;52.956;5.906;2024-03-02T08:29:14;4.10;;;0.80;;
29816;SDS011;16805;52.956;5.906;2024-03-02T08:31:46;1.45;;;0.85;;
29816;SDS011;16805;52.956;5.906;2024-03-02T08:34:20;1.45;;;0.63;;
29816;SDS011;16805;52.956;5.906;2024-03-02T08:37:07;1.67;;;0.93;;
29816;SDS011;16805;52.956;5.906;2024-03-02T08:39:47;6.07;;;0.80;;
29816;SDS011;16805;52.956;5.906;2024-03-02T08:42:19;1.37;;;0.67;;
29816;SDS011;16805;52.956;5.906;2024-03-02T08:44:57;1.05;;;0.50;;
29816;SDS011;16805;52.956;5.906;2024-03-02T08:47:40;1.25;;;0.60;;
29816;SDS011;16805;52.956;5.906;2024-03-02T08:50:33;3.73;;;0.83;;
29816;SDS011;16805;52.956;5.906;2024-03-02T08:53:18;1.08;;;0.50;;
29816;SDS011;16805;52.956;5.906;2024-03-02T08:58:56;0.88;;;0.22;;
29816;SDS011;16805;52.956;5.906;2024-03-02T09:01:40;1.63;;;0.80;;
29816;SDS011;16805;52.956;5.906;2024-03-02T09:04:31;1.67;;;0.40;;
29816;SDS011;16805;52.956;5.906;2024-03-02T09:07:36;3.55;;;0.60;;
29816;SDS011;16805;52.956;5.906;2024-03-02T09:10:20;0.60;;;0.32;;
29816;SDS011;16805;52.956;5.906;2024-03-02T09:13:16;0.30;;;0.28;;
29816;SDS011;16805;52.956;5.906;2024-03-02T09:15:57;0.47;;;0.15;;
29816;SDS011;16805;52.956;5.906;2024-03-02T09:19:03;0.50;;;0.30;;
29816;SDS011;16805;52.956;5.906;2024-03-02T09:21:56;2.78;;;0.75;;
29816;SDS011;16805;52.956;5.906;2024-03-02T09:24:42;1.50;;;0.88;;
29816;SDS011;16805;52.956;5.906;2024-03-02T09:30:07;2.35;;;0.30;;
29816;SDS011;16805;52.956;5.906;2024-03-02T09:32:39;0.45;;;0.32;;
29816;SDS011;16805;52.956;5.906;2024-03-02T09:35:26;1.08;;;0.40;;
29816;SDS011;16805;52.956;5.906;2024-03-02T09:38:03;0.90;;;0.30;;
29816;SDS011;16805;52.956;5.906;2024-03-02T09:40:49;1.85;;;0.45;;
29816;SDS011;16805;52.956;5.906;2024-03-02T09:43:26;1.75;;;0.52;;
29816;SDS011;16805;52.956;5.906;2024-03-02T09:46:31;2.25;;;0.75;;
29816;SDS011;16805;52.956;5.906;2024-03-02T09:49:10;1.65;;;0.40;;
29816;SDS011;16805;52.956;5.906;2024-03-02T09:51:56;2.28;;;0.57;;
29816;SDS011;16805;52.956;5.906;2024-03-02T09:54:43;3.47;;;0.95;;
29816;SDS011;16805;52.956;5.906;2024-03-02T09:57:27;0.82;;;0.50;;
29816;SDS011;16805;52.956;5.906;2024-03-02T10:00:08;0.57;;;0.22;;
29816;SDS011;16805;52.956;5.906;2024-03-02T10:03:25;0.75;;;0.50;;
29816;SDS011;16805;52.956;5.906;2024-03-02T10:06:19;1.83;;;0.43;;
29816;SDS011;16805;52.956;5.906;2024-03-02T10:09:35;0.70;;;0.40;;
29816;SDS011;16805;52.956;5.906;2024-03-02T10:12:29;3.00;;;0.50;;
29816;SDS011;16805;52.956;5.906;2024-03-02T10:31:27;2.47;;;0.65;;
29816;SDS011;16805;52.956;5.906;2024-03-02T10:37:21;1.80;;;0.93;;
29816;SDS011;16805;52.956;5.906;2024-03-02T10:48:05;2.13;;;0.57;;
29816;SDS011;16805;52.956;5.906;2024-03-02T10:51:13;1.10;;;0.40;;
29816;SDS011;16805;52.956;5.906;2024-03-02T10:54:25;1.50;;;0.47;;
29816;SDS011;16805;52.956;5.906;2024-03-02T11:04:08;1.83;;;0.40;;
29816;SDS011;16805;52.956;5.906;2024-03-02T11:07:00;4.03;;;0.70;;
29816;SDS011;16805;52.956;5.906;2024-03-02T11:10:16;2.75;;;0.52;;
29816;SDS011;16805;52.956;5.906;2024-03-02T11:19:25;0.80;;;0.50;;
29816;SDS011;16805;52.956;5.906;2024-03-02T11:29:07;1.08;;;0.40;;
29816;SDS011;16805;52.956;5.906;2024-03-02T11:35:18;1.48;;;0.50;;
29816;SDS011;16805;52.956;5.906;2024-03-02T11:41:48;3.08;;;0.45;;
29816;SDS011;16805;52.956;5.906;2024-03-02T11:44:57;1.60;;;0.40;;
29816;SDS011;16805;52.956;5.906;2024-03-02T11:48:06;1.45;;;0.47;;
29816;SDS011;16805;52.956;5.906;2024-03-02T11:51:17;0.47;;;0.28;;
29816;SDS011;16805;52.956;5.906;2024-03-02T11:57:20;3.55;;;0.40;;
29816;SDS011;16805;52.956;5.906;2024-03-02T11:59:55;2.47;;;0.82;;
29816;SDS011;16805;52.956;5.906;2024-03-02T12:03:01;4.05;;;0.50;;
29816;SDS011;16805;52.956;5.906;2024-03-02T12:06:03;1.50;;;0.50;;
29816;SDS011;16805;52.956;5.906;2024-03-02T12:08:38;2.20;;;0.80;;
29816;SDS011;16805;52.956;5.906;2024-03-02T12:11:25;1.65;;;0.60;;
29816;SDS011;16805;52.956;5.906;2024-03-02T12:14:12;0.68;;;0.35;;
29816;SDS011;16805;52.956;5.906;2024-03-02T12:17:15;0.75;;;0.30;;
29816;SDS011;16805;52.956;5.906;2024-03-02T12:20:12;1.33;;;0.55;;
29816;SDS011;16805;52.956;5.906;2024-03-02T12:23:02;3.97;;;0.65;;
29816;SDS011;16805;52.956;5.906;2024-03-02T12:29:01;1.58;;;0.70;;
29816;SDS011;16805;52.956;5.906;2024-03-02T12:32:00;0.93;;;0.43;;
29816;SDS011;16805;52.956;5.906;2024-03-02T12:35:14;1.10;;;0.55;;
29816;SDS011;16805;52.956;5.906;2024-03-02T12:37:49;1.80;;;0.52;;
29816;SDS011;16805;52.956;5.906;2024-03-02T12:41:02;2.20;;;0.50;;
29816;SDS011;16805;52.956;5.906;2024-03-02T12:43:58;3.90;;;0.60;;
29816;SDS011;16805;52.956;5.906;2024-03-02T12:46:53;1.60;;;0.63;;
29816;SDS011;16805;52.956;5.906;2024-03-02T12:50:04;1.75;;;0.57;;
29816;SDS011;16805;52.956;5.906;2024-03-02T12:52:42;4.68;;;0.90;;
29816;SDS011;16805;52.956;5.906;2024-03-02T12:55:27;0.75;;;0.60;;
29816;SDS011;16805;52.956;5.906;2024-03-02T12:59:08;2.17;;;0.38;;
29816;SDS011;16805;52.956;5.906;2024-03-02T13:02:27;0.70;;;0.22;;
29816;SDS011;16805;52.956;5.906;2024-03-02T13:05:56;0.88;;;0.20;;
29816;SDS011;16805;52.956;5.906;2024-03-02T13:08:40;1.95;;;0.50;;
29816;SDS011;16805;52.956;5.906;2024-03-02T13:11:16;1.88;;;0.30;;
29816;SDS011;16805;52.956;5.906;2024-03-02T13:14:00;1.33;;;0.40;;
29816;SDS011;16805;52.956;5.906;2024-03-02T13:16:26;1.65;;;0.50;;
29816;SDS011;16805;52.956;5.906;2024-03-02T13:23:07;0.63;;;0.55;;
29816;SDS011;16805;52.956;5.906;2024-03-02T13:28:54;3.70;;;0.47;;
29816;SDS011;16805;52.956;5.906;2024-03-02T13:31:42;1.83;;;0.30;;
29816;SDS011;16805;52.956;5.906;2024-03-02T13:34:52;2.28;;;0.40;;
29816;SDS011;16805;52.956;5.906;2024-03-02T13:38:02;1.75;;;0.90;;
29816;SDS011;16805;52.956;5.906;2024-03-02T13:44:14;0.73;;;0.50;;
29816;SDS011;16805;52.956;5.906;2024-03-02T13:46:52;2.20;;;0.60;;
29816;SDS011;16805;52.956;5.906;2024-03-02T13:49:51;1.83;;;0.38;;
29816;SDS011;16805;52.956;5.906;2024-03-02T13:52:21;0.73;;;0.40;;
29816;SDS011;16805;52.956;5.906;2024-03-02T13:55:16;1.45;;;0.30;;
29816;SDS011;16805;52.956;5.906;2024-03-02T13:58:03;0.43;;;0.28;;
29816;SDS011;16805;52.956;5.906;2024-03-02T14:00:47;0.35;;;0.30;;
29816;SDS011;16805;52.956;5.906;2024-03-02T14:03:17;2.53;;;0.52;;
29816;SDS011;16805;52.956;5.906;2024-03-02T14:05:45;2.00;;;0.70;;
29816;SDS011;16805;52.956;5.906;2024-03-02T14:08:21;0.77;;;0.30;;
29816;SDS011;16805;52.956;5.906;2024-03-02T14:10:46;0.20;;;0.20;;
29816;SDS011;16805;52.956;5.906;2024-03-02T14:13:15;2.97;;;0.40;;
29816;SDS011;16805;52.956;5.906;2024-03-02T14:15:49;0.65;;;0.40;;
29816;SDS011;16805;52.956;5.906;2024-03-02T14:18:29;2.08;;;0.70;;
29816;SDS011;16805;52.956;5.906;2024-03-02T14:21:07;1.60;;;0.90;;
29816;SDS011;16805;52.956;5.906;2024-03-02T14:23:40;2.75;;;1.20;;
29816;SDS011;16805;52.956;5.906;2024-03-02T14:26:07;2.88;;;0.63;;
29816;SDS011;16805;52.956;5.906;2024-03-02T14:28:32;3.22;;;0.98;;
29816;SDS011;16805;52.956;5.906;2024-03-02T14:31:05;0.80;;;0.40;;
29816;SDS011;16805;52.956;5.906;2024-03-02T14:33:50;0.45;;;0.40;;
29816;SDS011;16805;52.956;5.906;2024-03-02T14:36:30;1.88;;;0.40;;
29816;SDS011;16805;52.956;5.906;2024-03-02T14:38:56;0.80;;;0.57;;
29816;SDS011;16805;52.956;5.906;2024-03-02T14:41:47;1.02;;;0.60;;
29816;SDS011;16805;52.956;5.906;2024-03-02T14:44:30;1.48;;;0.60;;
29816;SDS011;16805;52.956;5.906;2024-03-02T14:47:17;1.13;;;0.60;;
29816;SDS011;16805;52.956;5.906;2024-03-02T14:49:48;1.77;;;0.70;;
29816;SDS011;16805;52.956;5.906;2024-03-02T14:52:28;2.28;;;0.65;;
29816;SDS011;16805;52.956;5.906;2024-03-02T14:54:58;1.00;;;0.60;;
29816;SDS011;16805;52.956;5.906;2024-03-02T14:57:26;0.75;;;0.75;;
29816;SDS011;16805;52.956;5.906;2024-03-02T15:03:02;3.42;;;1.10;;
29816;SDS011;16805;52.956;5.906;2024-03-02T15:05:37;1.30;;;0.95;;
29816;SDS011;16805;52.956;5.906;2024-03-02T15:08:18;0.60;;;0.60;;
29816;SDS011;16805;52.956;5.906;2024-03-02T15:10:54;3.30;;;0.93;;
29816;SDS011;16805;52.956;5.906;2024-03-02T15:13:30;1.30;;;0.98;;
29816;SDS011;16805;52.956;5.906;2024-03-02T15:16:11;1.58;;;0.90;;
29816;SDS011;16805;52.956;5.906;2024-03-02T15:19:09;2.00;;;1.20;;
29816;SDS011;16805;52.956;5.906;2024-03-02T15:21:35;2.55;;;1.75;;
29816;SDS011;16805;52.956;5.906;2024-03-02T15:24:02;3.53;;;1.52;;
29816;SDS011;16805;52.956;5.906;2024-03-02T15:26:40;2.47;;;0.90;;
29816;SDS011;16805;52.956;5.906;2024-03-02T15:29:31;2.38;;;1.10;;
29816;SDS011;16805;52.956;5.906;2024-03-02T15:32:07;1.20;;;1.02;;
29816;SDS011;16805;52.956;5.906;2024-03-02T15:34:37;1.85;;;1.00;;
29816;SDS011;16805;52.956;5.906;2024-03-02T15:37:09;0.95;;;0.85;;
29816;SDS011;16805;52.956;5.906;2024-03-02T15:39:40;1.13;;;0.93;;
29816;SDS011;16805;52.956;5.906;2024-03-02T15:42:07;2.15;;;1.20;;
29816;SDS011;16805;52.956;5.906;2024-03-02T15:44:55;2.08;;;1.30;;
29816;SDS011;16805;52.956;5.906;2024-03-02T15:47:21;2.17;;;1.33;;
29816;SDS011;16805;52.956;5.906;2024-03-02T15:49:46;4.05;;;1.58;;
29816;SDS011;16805;52.956;5.906;2024-03-02T15:52:30;2.38;;;1.60;;
29816;SDS011;16805;52.956;5.906;2024-03-02T15:55:03;2.60;;;1.27;;
29816;SDS011;16805;52.956;5.906;2024-03-02T15:57:33;1.95;;;1.15;;
29816;SDS011;16805;52.956;5.906;2024-03-02T16:00:06;1.85;;;1.23;;
29816;SDS011;16805;52.956;5.906;2024-03-02T16:02:38;2.60;;;1.20;;
29816;SDS011;16805;52.956;5.906;2024-03-02T16:05:14;1.67;;;1.30;;
29816;SDS011;16805;52.956;5.906;2024-03-02T16:07:54;3.20;;;1.40;;
29816;SDS011;16805;52.956;5.906;2024-03-02T16:13:23;1.45;;;1.23;;
29816;SDS011;16805;52.956;5.906;2024-03-02T16:15:55;1.23;;;0.90;;
29816;SDS011;16805;52.956;5.906;2024-03-02T16:18:34;2.08;;;0.93;;
29816;SDS011;16805;52.956;5.906;2024-03-02T16:21:11;1.55;;;1.00;;
29816;SDS011;16805;52.956;5.906;2024-03-02T16:23:40;1.70;;;1.15;;
29816;SDS011;16805;52.956;5.906;2024-03-02T16:26:09;2.28;;;1.30;;
29816;SDS011;16805;52.956;5.906;2024-03-02T16:28:37;3.53;;;0.85;;
29816;SDS011;16805;52.956;5.906;2024-03-02T16:31:09;2.05;;;1.23;;
29816;SDS011;16805;52.956;5.906;2024-03-02T16:33:43;3.40;;;1.00;;
29816;SDS011;16805;52.956;5.906;2024-03-02T16:36:13;1.90;;;1.08;;
29816;SDS011;16805;52.956;5.906;2024-03-02T16:44:16;1.75;;;0.82;;
29816;SDS011;16805;52.956;5.906;2024-03-02T16:46:57;1.73;;;0.80;;
29816;SDS011;16805;52.956;5.906;2024-03-02T16:49:29;2.63;;;1.00;;
29816;SDS011;16805;52.956;5.906;2024-03-02T16:52:24;1.80;;;0.75;;
29816;SDS011;16805;52.956;5.906;2024-03-02T16:54:57;3.08;;;1.00;;
29816;SDS011;16805;52.956;5.906;2024-03-02T16:57:23;1.67;;;0.73;;
29816;SDS011;16805;52.956;5.906;2024-03-02T17:00:13;2.53;;;1.02;;
29816;SDS011;16805;52.956;5.906;2024-03-02T17:02:43;1.00;;;0.60;;
29816;SDS011;16805;52.956;5.906;2024-03-02T17:05:23;2.38;;;0.82;;
29816;SDS011;16805;52.956;5.906;2024-03-02T17:08:03;3.42;;;1.08;;
29816;SDS011;16805;52.956;5.906;2024-03-02T17:10:32;0.73;;;0.55;;
29816;SDS011;16805;52.956;5.906;2024-03-02T17:13:13;3.30;;;0.98;;
29816;SDS011;16805;52.956;5.906;2024-03-02T17:15:49;1.02;;;0.70;;
29816;SDS011;16805;52.956;5.906;2024-03-02T17:18:23;2.05;;;1.10;;
29816;SDS011;16805;52.956;5.906;2024-03-02T17:26:48;2.45;;;1.00;;
29816;SDS011;16805;52.956;5.906;2024-03-02T17:32:12;1.55;;;1.00;;
29816;SDS011;16805;52.956;5.906;2024-03-02T17:34:55;3.63;;;1.02;;
29816;SDS011;16805;52.956;5.906;2024-03-02T17:37:25;2.53;;;0.90;;
29816;SDS011;16805;52.956;5.906;2024-03-02T17:39:54;2.25;;;1.58;;
29816;SDS011;16805;52.956;5.906;2024-03-02T17:42:31;0.82;;;0.75;;
29816;SDS011;16805;52.956;5.906;2024-03-02T17:44:59;3.63;;;1.40;;
29816;SDS011;16805;52.956;5.906;2024-03-02T17:47:39;3.00;;;1.33;;
29816;SDS011;16805;52.956;5.906;2024-03-02T17:50:09;3.33;;;1.67;;
29816;SDS011;16805;52.956;5.906;2024-03-02T17:52:36;1.63;;;1.08;;
29816;SDS011;16805;52.956;5.906;2024-03-02T17:55:02;2.30;;;1.10;;
29816;SDS011;16805;52.956;5.906;2024-03-02T17:57:31;1.60;;;0.98;;